sensor_id;sensor_type;location;lat;lon;timestamp;temperature;humidity
18105;DHT22;9179;50.968;3.134;2023-05-29T00:01:55;13.80;99.90
18105;DHT22;9179;50.968;3.134;2023-05-29T00:04:22;13.80;99.90
18105;DHT22;9179;50.968;3.134;2023-05-29T00:06:49;13.80;99.90
18105;DHT22;9179;50.968;3.134;2023-05-29T00:09:16;13.80;99.90
18105;DHT22;9179;50.968;3.134;2023-05-29T00:11:44;13.80;99.90
18105;DHT22;9179;50.968;3.134;2023-05-29T00:14:16;13.70;99.90
18105;DHT22;9179;50.968;3.134;2023-05-29T00:16:45;13.70;99.90
18105;DHT22;9179;50.968;3.134;2023-05-29T00:19:12;13.70;99.90
18105;DHT22;9179;50.968;3.134;2023-05-29T00:21:39;13.70;99.90
18105;DHT22;9179;50.968;3.134;2023-05-29T00:24:07;13.70;99.90
18105;DHT22;9179;50.968;3.134;2023-05-29T00:26:33;13.60;99.90
18105;DHT22;9179;50.968;3.134;2023-05-29T00:29:02;13.70;99.90
18105;DHT22;9179;50.968;3.134;2023-05-29T00:31:30;13.60;99.90
18105;DHT22;9179;50.968;3.134;2023-05-29T00:33:56;13.60;99.90
18105;DHT22;9179;50.968;3.134;2023-05-29T00:36:24;13.60;99.90
18105;DHT22;9179;50.968;3.134;2023-05-29T00:38:51;13.60;99.90
18105;DHT22;9179;50.968;3.134;2023-05-29T00:41:18;13.60;99.90
18105;DHT22;9179;50.968;3.134;2023-05-29T00:43:45;13.50;99.90
18105;DHT22;9179;50.968;3.134;2023-05-29T00:46:14;13.50;99.90
18105;DHT22;9179;50.968;3.134;2023-05-29T00:48:42;13.50;99.90
18105;DHT22;9179;50.968;3.134;2023-05-29T00:51:10;13.50;99.90
18105;DHT22;9179;50.968;3.134;2023-05-29T00:53:40;13.50;99.90
18105;DHT22;9179;50.968;3.134;2023-05-29T00:56:07;13.40;99.90
18105;DHT22;9179;50.968;3.134;2023-05-29T00:58:36;13.40;99.90
18105;DHT22;9179;50.968;3.134;2023-05-29T01:01:03;13.30;99.90
18105;DHT22;9179;50.968;3.134;2023-05-29T01:03:31;13.30;99.90
18105;DHT22;9179;50.968;3.134;2023-05-29T01:05:58;13.30;99.90
18105;DHT22;9179;50.968;3.134;2023-05-29T01:08:26;13.20;99.90
18105;DHT22;9179;50.968;3.134;2023-05-29T01:10:59;13.20;99.90
18105;DHT22;9179;50.968;3.134;2023-05-29T01:13:29;13.20;99.90
18105;DHT22;9179;50.968;3.134;2023-05-29T01:16:01;13.20;99.90
18105;DHT22;9179;50.968;3.134;2023-05-29T01:18:39;13.10;99.90
18105;DHT22;9179;50.968;3.134;2023-05-29T01:21:12;13.10;99.90
18105;DHT22;9179;50.968;3.134;2023-05-29T01:24:07;13.10;99.90
18105;DHT22;9179;50.968;3.134;2023-05-29T01:26:53;13.00;99.90
18105;DHT22;9179;50.968;3.134;2023-05-29T01:29:24;13.00;99.90
18105;DHT22;9179;50.968;3.134;2023-05-29T01:31:51;13.00;99.90
18105;DHT22;9179;50.968;3.134;2023-05-29T01:34:18;12.90;99.90
18105;DHT22;9179;50.968;3.134;2023-05-29T01:36:46;12.90;99.90
18105;DHT22;9179;50.968;3.134;2023-05-29T01:39:13;12.90;99.90
18105;DHT22;9179;50.968;3.134;2023-05-29T01:41:41;12.90;99.90
18105;DHT22;9179;50.968;3.134;2023-05-29T01:44:10;12.90;99.90
18105;DHT22;9179;50.968;3.134;2023-05-29T01:46:40;12.80;99.90
18105;DHT22;9179;50.968;3.134;2023-05-29T01:49:08;12.80;99.90
18105;DHT22;9179;50.968;3.134;2023-05-29T01:51:36;12.80;99.90
18105;DHT22;9179;50.968;3.134;2023-05-29T01:54:04;12.80;99.90
18105;DHT22;9179;50.968;3.134;2023-05-29T01:56:31;12.70;99.90
18105;DHT22;9179;50.968;3.134;2023-05-29T01:58:59;12.70;99.90
18105;DHT22;9179;50.968;3.134;2023-05-29T02:01:28;12.70;99.90
18105;DHT22;9179;50.968;3.134;2023-05-29T02:03:54;12.70;99.90
18105;DHT22;9179;50.968;3.134;2023-05-29T02:06:21;12.60;99.90
18105;DHT22;9179;50.968;3.134;2023-05-29T02:08:48;12.60;99.90
18105;DHT22;9179;50.968;3.134;2023-05-29T02:11:15;12.60;99.90
18105;DHT22;9179;50.968;3.134;2023-05-29T02:13:42;12.60;99.90
18105;DHT22;9179;50.968;3.134;2023-05-29T02:16:09;12.60;99.90
18105;DHT22;9179;50.968;3.134;2023-05-29T02:18:37;12.60;99.90
18105;DHT22;9179;50.968;3.134;2023-05-29T02:21:06;12.50;99.90
18105;DHT22;9179;50.968;3.134;2023-05-29T02:23:34;12.50;99.90
18105;DHT22;9179;50.968;3.134;2023-05-29T02:26:01;12.50;99.90
18105;DHT22;9179;50.968;3.134;2023-05-29T02:28:27;12.40;99.90
18105;DHT22;9179;50.968;3.134;2023-05-29T02:30:54;12.40;99.90
18105;DHT22;9179;50.968;3.134;2023-05-29T02:33:21;12.40;99.90
18105;DHT22;9179;50.968;3.134;2023-05-29T02:35:50;12.40;99.90
18105;DHT22;9179;50.968;3.134;2023-05-29T02:38:16;12.40;99.90
18105;DHT22;9179;50.968;3.134;2023-05-29T02:40:44;12.40;99.90
18105;DHT22;9179;50.968;3.134;2023-05-29T02:43:13;12.40;99.90
18105;DHT22;9179;50.968;3.134;2023-05-29T02:45:40;12.40;99.90
18105;DHT22;9179;50.968;3.134;2023-05-29T02:48:07;12.30;99.90
18105;DHT22;9179;50.968;3.134;2023-05-29T02:50:33;12.30;99.90
18105;DHT22;9179;50.968;3.134;2023-05-29T02:53:02;12.30;99.90
18105;DHT22;9179;50.968;3.134;2023-05-29T02:55:29;12.20;99.90
18105;DHT22;9179;50.968;3.134;2023-05-29T02:57:57;12.20;99.90
18105;DHT22;9179;50.968;3.134;2023-05-29T03:00:25;12.20;99.90
18105;DHT22;9179;50.968;3.134;2023-05-29T03:02:54;12.20;99.90
18105;DHT22;9179;50.968;3.134;2023-05-29T03:05:21;12.20;99.90
18105;DHT22;9179;50.968;3.134;2023-05-29T03:07:48;12.20;99.90
18105;DHT22;9179;50.968;3.134;2023-05-29T03:10:16;12.20;99.90
18105;DHT22;9179;50.968;3.134;2023-05-29T03:12:44;12.20;99.90
18105;DHT22;9179;50.968;3.134;2023-05-29T03:15:11;12.10;99.90
18105;DHT22;9179;50.968;3.134;2023-05-29T03:17:37;12.10;99.90
18105;DHT22;9179;50.968;3.134;2023-05-29T03:20:06;12.10;99.90
18105;DHT22;9179;50.968;3.134;2023-05-29T03:22:34;12.10;99.90
18105;DHT22;9179;50.968;3.134;2023-05-29T03:25:02;12.10;99.90
18105;DHT22;9179;50.968;3.134;2023-05-29T03:27:31;12.00;99.90
18105;DHT22;9179;50.968;3.134;2023-05-29T03:29:58;12.00;99.90
18105;DHT22;9179;50.968;3.134;2023-05-29T03:32:25;11.90;99.90
18105;DHT22;9179;50.968;3.134;2023-05-29T03:34:52;12.00;99.90
18105;DHT22;9179;50.968;3.134;2023-05-29T03:37:19;12.00;99.90
18105;DHT22;9179;50.968;3.134;2023-05-29T03:39:46;12.00;99.90
18105;DHT22;9179;50.968;3.134;2023-05-29T03:42:13;12.00;99.90
18105;DHT22;9179;50.968;3.134;2023-05-29T03:44:42;12.00;99.90
18105;DHT22;9179;50.968;3.134;2023-05-29T03:47:08;12.00;99.90
18105;DHT22;9179;50.968;3.134;2023-05-29T03:49:35;12.00;99.90
18105;DHT22;9179;50.968;3.134;2023-05-29T03:52:02;12.00;99.90
18105;DHT22;9179;50.968;3.134;2023-05-29T03:54:30;12.00;99.90
18105;DHT22;9179;50.968;3.134;2023-05-29T03:56:56;12.00;99.90
18105;DHT22;9179;50.968;3.134;2023-05-29T03:59:23;12.10;99.90
18105;DHT22;9179;50.968;3.134;2023-05-29T04:01:52;12.00;99.90
18105;DHT22;9179;50.968;3.134;2023-05-29T04:04:18;12.10;99.90
18105;DHT22;9179;50.968;3.134;2023-05-29T04:06:45;12.10;99.90
18105;DHT22;9179;50.968;3.134;2023-05-29T04:09:12;12.10;99.90
18105;DHT22;9179;50.968;3.134;2023-05-29T04:11:39;12.20;99.90
18105;DHT22;9179;50.968;3.134;2023-05-29T04:14:07;12.20;99.90
18105;DHT22;9179;50.968;3.134;2023-05-29T04:16:34;12.20;99.90
18105;DHT22;9179;50.968;3.134;2023-05-29T04:19:02;12.20;99.90
18105;DHT22;9179;50.968;3.134;2023-05-29T04:21:30;12.30;99.90
18105;DHT22;9179;50.968;3.134;2023-05-29T04:23:58;12.30;99.90
18105;DHT22;9179;50.968;3.134;2023-05-29T04:26:25;12.40;99.90
18105;DHT22;9179;50.968;3.134;2023-05-29T04:28:52;12.40;99.90
18105;DHT22;9179;50.968;3.134;2023-05-29T04:31:23;12.50;99.90
18105;DHT22;9179;50.968;3.134;2023-05-29T04:33:51;12.60;99.90
18105;DHT22;9179;50.968;3.134;2023-05-29T04:36:23;12.70;99.90
18105;DHT22;9179;50.968;3.134;2023-05-29T04:38:52;12.90;99.90
18105;DHT22;9179;50.968;3.134;2023-05-29T04:41:19;13.00;99.90
18105;DHT22;9179;50.968;3.134;2023-05-29T04:43:49;13.20;99.90
18105;DHT22;9179;50.968;3.134;2023-05-29T04:46:16;13.30;99.90
18105;DHT22;9179;50.968;3.134;2023-05-29T04:48:43;13.50;99.90
18105;DHT22;9179;50.968;3.134;2023-05-29T04:51:10;13.60;99.90
18105;DHT22;9179;50.968;3.134;2023-05-29T04:53:39;13.70;99.90
18105;DHT22;9179;50.968;3.134;2023-05-29T04:56:07;13.90;99.90
18105;DHT22;9179;50.968;3.134;2023-05-29T04:58:33;14.10;99.90
18105;DHT22;9179;50.968;3.134;2023-05-29T05:01:00;14.30;99.90
18105;DHT22;9179;50.968;3.134;2023-05-29T05:03:29;14.50;99.90
18105;DHT22;9179;50.968;3.134;2023-05-29T05:05:59;14.30;99.90
18105;DHT22;9179;50.968;3.134;2023-05-29T05:08:27;14.50;99.90
18105;DHT22;9179;50.968;3.134;2023-05-29T05:10:56;14.70;99.90
18105;DHT22;9179;50.968;3.134;2023-05-29T05:13:23;14.70;99.90
18105;DHT22;9179;50.968;3.134;2023-05-29T05:15:50;14.80;99.90
18105;DHT22;9179;50.968;3.134;2023-05-29T05:18:17;15.00;99.90
18105;DHT22;9179;50.968;3.134;2023-05-29T05:20:44;15.20;99.90
18105;DHT22;9179;50.968;3.134;2023-05-29T05:23:11;15.40;99.90
18105;DHT22;9179;50.968;3.134;2023-05-29T05:25:38;15.80;99.90
18105;DHT22;9179;50.968;3.134;2023-05-29T05:28:07;15.90;99.90
18105;DHT22;9179;50.968;3.134;2023-05-29T05:30:34;15.90;99.90
18105;DHT22;9179;50.968;3.134;2023-05-29T05:33:01;16.00;99.90
18105;DHT22;9179;50.968;3.134;2023-05-29T05:35:29;15.90;99.90
18105;DHT22;9179;50.968;3.134;2023-05-29T05:37:56;16.10;99.90
18105;DHT22;9179;50.968;3.134;2023-05-29T05:40:24;16.30;99.90
18105;DHT22;9179;50.968;3.134;2023-05-29T05:42:51;16.40;99.90
18105;DHT22;9179;50.968;3.134;2023-05-29T05:45:20;16.40;99.90
18105;DHT22;9179;50.968;3.134;2023-05-29T05:47:47;16.40;99.90
18105;DHT22;9179;50.968;3.134;2023-05-29T05:50:14;16.50;99.90
18105;DHT22;9179;50.968;3.134;2023-05-29T05:52:41;16.60;99.90
18105;DHT22;9179;50.968;3.134;2023-05-29T05:55:08;16.50;99.90
18105;DHT22;9179;50.968;3.134;2023-05-29T05:57:35;16.60;99.90
18105;DHT22;9179;50.968;3.134;2023-05-29T06:00:02;16.60;99.90
18105;DHT22;9179;50.968;3.134;2023-05-29T06:02:33;17.30;99.90
18105;DHT22;9179;50.968;3.134;2023-05-29T06:04:59;17.60;99.90
18105;DHT22;9179;50.968;3.134;2023-05-29T06:07:26;17.70;99.90
18105;DHT22;9179;50.968;3.134;2023-05-29T06:09:54;17.50;99.90
18105;DHT22;9179;50.968;3.134;2023-05-29T06:12:21;17.30;99.90
18105;DHT22;9179;50.968;3.134;2023-05-29T06:14:47;17.30;99.90
18105;DHT22;9179;50.968;3.134;2023-05-29T06:17:15;17.50;99.90
18105;DHT22;9179;50.968;3.134;2023-05-29T06:19:43;17.50;99.90
18105;DHT22;9179;50.968;3.134;2023-05-29T06:22:10;17.60;99.90
18105;DHT22;9179;50.968;3.134;2023-05-29T06:24:37;18.00;99.90
18105;DHT22;9179;50.968;3.134;2023-05-29T06:27:04;18.20;99.90
18105;DHT22;9179;50.968;3.134;2023-05-29T06:29:31;18.40;99.90
18105;DHT22;9179;50.968;3.134;2023-05-29T06:31:58;18.60;99.90
18105;DHT22;9179;50.968;3.134;2023-05-29T06:34:25;18.70;99.90
18105;DHT22;9179;50.968;3.134;2023-05-29T06:36:54;18.90;99.90
18105;DHT22;9179;50.968;3.134;2023-05-29T06:39:21;18.70;99.90
18105;DHT22;9179;50.968;3.134;2023-05-29T06:41:47;19.00;99.90
18105;DHT22;9179;50.968;3.134;2023-05-29T06:44:15;19.20;99.90
18105;DHT22;9179;50.968;3.134;2023-05-29T06:46:41;19.60;99.90
18105;DHT22;9179;50.968;3.134;2023-05-29T06:49:08;19.90;99.90
18105;DHT22;9179;50.968;3.134;2023-05-29T06:51:35;20.00;99.90
18105;DHT22;9179;50.968;3.134;2023-05-29T06:54:04;20.10;99.90
18105;DHT22;9179;50.968;3.134;2023-05-29T06:56:32;19.50;99.90
18105;DHT22;9179;50.968;3.134;2023-05-29T06:58:58;19.70;99.90
18105;DHT22;9179;50.968;3.134;2023-05-29T07:01:26;19.90;99.90
18105;DHT22;9179;50.968;3.134;2023-05-29T07:03:52;19.90;99.90
18105;DHT22;9179;50.968;3.134;2023-05-29T07:06:20;19.90;99.90
18105;DHT22;9179;50.968;3.134;2023-05-29T07:08:47;19.90;99.90
18105;DHT22;9179;50.968;3.134;2023-05-29T07:11:15;19.60;99.90
18105;DHT22;9179;50.968;3.134;2023-05-29T07:13:42;19.70;99.90
18105;DHT22;9179;50.968;3.134;2023-05-29T07:16:09;19.40;99.90
18105;DHT22;9179;50.968;3.134;2023-05-29T07:18:36;19.50;99.90
18105;DHT22;9179;50.968;3.134;2023-05-29T07:21:03;20.00;99.90
18105;DHT22;9179;50.968;3.134;2023-05-29T07:23:30;20.10;99.90
18105;DHT22;9179;50.968;3.134;2023-05-29T07:25:57;20.30;99.90
18105;DHT22;9179;50.968;3.134;2023-05-29T07:28:25;20.70;99.90
18105;DHT22;9179;50.968;3.134;2023-05-29T07:30:52;20.90;99.90
18105;DHT22;9179;50.968;3.134;2023-05-29T07:33:19;21.00;99.80
18105;DHT22;9179;50.968;3.134;2023-05-29T07:35:47;20.70;99.30
18105;DHT22;9179;50.968;3.134;2023-05-29T07:38:14;20.40;99.00
18105;DHT22;9179;50.968;3.134;2023-05-29T07:40:41;20.40;99.70
18105;DHT22;9179;50.968;3.134;2023-05-29T07:43:08;21.20;99.80
18105;DHT22;9179;50.968;3.134;2023-05-29T07:45:37;21.20;97.10
18105;DHT22;9179;50.968;3.134;2023-05-29T07:48:04;21.00;96.80
18105;DHT22;9179;50.968;3.134;2023-05-29T07:50:31;21.10;97.50
18105;DHT22;9179;50.968;3.134;2023-05-29T07:52:58;21.40;96.50
18105;DHT22;9179;50.968;3.134;2023-05-29T07:55:26;21.60;95.80
18105;DHT22;9179;50.968;3.134;2023-05-29T07:57:52;21.90;95.60
18105;DHT22;9179;50.968;3.134;2023-05-29T08:00:19;21.90;94.90
18105;DHT22;9179;50.968;3.134;2023-05-29T08:02:49;21.60;93.90
18105;DHT22;9179;50.968;3.134;2023-05-29T08:05:17;21.50;93.90
18105;DHT22;9179;50.968;3.134;2023-05-29T08:07:43;21.50;94.10
18105;DHT22;9179;50.968;3.134;2023-05-29T08:10:10;22.10;94.00
18105;DHT22;9179;50.968;3.134;2023-05-29T08:12:37;22.10;92.90
18105;DHT22;9179;50.968;3.134;2023-05-29T08:15:05;21.70;93.00
18105;DHT22;9179;50.968;3.134;2023-05-29T08:17:33;22.10;93.20
18105;DHT22;9179;50.968;3.134;2023-05-29T08:20:02;22.10;92.80
18105;DHT22;9179;50.968;3.134;2023-05-29T08:22:32;22.10;92.40
18105;DHT22;9179;50.968;3.134;2023-05-29T08:24:59;22.20;92.60
18105;DHT22;9179;50.968;3.134;2023-05-29T08:27:27;22.50;92.20
18105;DHT22;9179;50.968;3.134;2023-05-29T08:29:54;22.60;91.90
18105;DHT22;9179;50.968;3.134;2023-05-29T08:32:21;22.80;91.30
18105;DHT22;9179;50.968;3.134;2023-05-29T08:34:48;23.10;90.70
18105;DHT22;9179;50.968;3.134;2023-05-29T08:37:16;22.90;90.70
18105;DHT22;9179;50.968;3.134;2023-05-29T08:39:43;22.80;90.70
18105;DHT22;9179;50.968;3.134;2023-05-29T08:42:13;23.00;90.20
18105;DHT22;9179;50.968;3.134;2023-05-29T08:44:47;22.90;90.00
18105;DHT22;9179;50.968;3.134;2023-05-29T08:47:16;22.70;90.00
18105;DHT22;9179;50.968;3.134;2023-05-29T08:49:51;23.00;89.00
18105;DHT22;9179;50.968;3.134;2023-05-29T08:52:22;23.00;89.10
18105;DHT22;9179;50.968;3.134;2023-05-29T08:54:49;23.30;87.50
18105;DHT22;9179;50.968;3.134;2023-05-29T08:57:16;23.30;86.80
18105;DHT22;9179;50.968;3.134;2023-05-29T08:59:44;23.20;85.70
18105;DHT22;9179;50.968;3.134;2023-05-29T09:02:11;23.00;85.20
18105;DHT22;9179;50.968;3.134;2023-05-29T09:04:40;22.60;86.20
18105;DHT22;9179;50.968;3.134;2023-05-29T09:07:07;22.80;86.60
18105;DHT22;9179;50.968;3.134;2023-05-29T09:09:36;22.90;86.00
18105;DHT22;9179;50.968;3.134;2023-05-29T09:12:04;23.10;85.90
18105;DHT22;9179;50.968;3.134;2023-05-29T09:14:38;23.70;85.10
18105;DHT22;9179;50.968;3.134;2023-05-29T09:17:07;23.60;83.00
18105;DHT22;9179;50.968;3.134;2023-05-29T09:19:34;23.30;83.40
18105;DHT22;9179;50.968;3.134;2023-05-29T09:22:06;23.50;82.90
18105;DHT22;9179;50.968;3.134;2023-05-29T09:24:37;23.20;83.80
18105;DHT22;9179;50.968;3.134;2023-05-29T09:27:05;23.20;83.40
18105;DHT22;9179;50.968;3.134;2023-05-29T09:29:35;23.00;83.20
18105;DHT22;9179;50.968;3.134;2023-05-29T09:32:06;22.90;83.60
18105;DHT22;9179;50.968;3.134;2023-05-29T09:34:34;23.20;84.00
18105;DHT22;9179;50.968;3.134;2023-05-29T09:37:02;23.10;83.80
18105;DHT22;9179;50.968;3.134;2023-05-29T09:39:44;23.80;84.20
18105;DHT22;9179;50.968;3.134;2023-05-29T09:42:12;24.00;81.60
18105;DHT22;9179;50.968;3.134;2023-05-29T09:44:40;23.50;81.90
18105;DHT22;9179;50.968;3.134;2023-05-29T09:47:07;23.50;83.50
18105;DHT22;9179;50.968;3.134;2023-05-29T09:49:34;23.80;82.60
18105;DHT22;9179;50.968;3.134;2023-05-29T09:52:04;23.80;81.90
18105;DHT22;9179;50.968;3.134;2023-05-29T09:54:36;23.90;82.20
18105;DHT22;9179;50.968;3.134;2023-05-29T09:57:05;24.30;80.30
18105;DHT22;9179;50.968;3.134;2023-05-29T09:59:33;24.40;80.10
18105;DHT22;9179;50.968;3.134;2023-05-29T10:02:02;24.20;80.10
18105;DHT22;9179;50.968;3.134;2023-05-29T10:04:30;24.00;81.20
18105;DHT22;9179;50.968;3.134;2023-05-29T10:07:01;24.70;81.40
18105;DHT22;9179;50.968;3.134;2023-05-29T10:09:31;24.60;80.10
18105;DHT22;9179;50.968;3.134;2023-05-29T10:12:03;24.20;80.00
18105;DHT22;9179;50.968;3.134;2023-05-29T10:14:33;24.00;81.50
18105;DHT22;9179;50.968;3.134;2023-05-29T10:17:02;23.90;80.40
18105;DHT22;9179;50.968;3.134;2023-05-29T10:19:36;23.80;80.60
18105;DHT22;9179;50.968;3.134;2023-05-29T10:22:04;23.70;80.40
18105;DHT22;9179;50.968;3.134;2023-05-29T10:24:33;24.30;81.10
18105;DHT22;9179;50.968;3.134;2023-05-29T10:27:04;24.30;81.00
18105;DHT22;9179;50.968;3.134;2023-05-29T10:29:35;24.60;81.10
18105;DHT22;9179;50.968;3.134;2023-05-29T10:32:17;24.70;80.60
18105;DHT22;9179;50.968;3.134;2023-05-29T10:34:50;24.70;80.20
18105;DHT22;9179;50.968;3.134;2023-05-29T10:37:29;25.10;80.60
18105;DHT22;9179;50.968;3.134;2023-05-29T10:40:04;25.50;80.20
18105;DHT22;9179;50.968;3.134;2023-05-29T10:42:44;25.50;79.60
18105;DHT22;9179;50.968;3.134;2023-05-29T10:45:48;25.00;80.00
18105;DHT22;9179;50.968;3.134;2023-05-29T10:48:38;24.90;81.10
18105;DHT22;9179;50.968;3.134;2023-05-29T10:51:06;24.80;82.10
18105;DHT22;9179;50.968;3.134;2023-05-29T10:53:34;24.90;81.80
18105;DHT22;9179;50.968;3.134;2023-05-29T10:56:08;25.00;80.80
18105;DHT22;9179;50.968;3.134;2023-05-29T10:58:37;25.10;80.10
18105;DHT22;9179;50.968;3.134;2023-05-29T11:01:08;25.00;81.10
18105;DHT22;9179;50.968;3.134;2023-05-29T11:03:35;25.40;81.30
18105;DHT22;9179;50.968;3.134;2023-05-29T11:06:03;25.50;80.20
18105;DHT22;9179;50.968;3.134;2023-05-29T11:08:34;25.10;79.80
18105;DHT22;9179;50.968;3.134;2023-05-29T11:11:03;24.80;80.20
18105;DHT22;9179;50.968;3.134;2023-05-29T11:13:32;25.00;80.80
18105;DHT22;9179;50.968;3.134;2023-05-29T11:16:12;25.10;79.50
18105;DHT22;9179;50.968;3.134;2023-05-29T11:18:44;25.00;80.10
18105;DHT22;9179;50.968;3.134;2023-05-29T11:21:43;25.00;79.60
18105;DHT22;9179;50.968;3.134;2023-05-29T11:24:16;24.60;80.00
18105;DHT22;9179;50.968;3.134;2023-05-29T11:26:48;24.80;80.80
18105;DHT22;9179;50.968;3.134;2023-05-29T11:29:14;24.60;80.00
18105;DHT22;9179;50.968;3.134;2023-05-29T11:31:43;24.60;80.60
18105;DHT22;9179;50.968;3.134;2023-05-29T11:34:14;24.80;80.00
18105;DHT22;9179;50.968;3.134;2023-05-29T11:36:41;24.90;79.80
18105;DHT22;9179;50.968;3.134;2023-05-29T11:39:09;25.40;80.90
18105;DHT22;9179;50.968;3.134;2023-05-29T11:41:36;25.70;79.60
18105;DHT22;9179;50.968;3.134;2023-05-29T11:44:04;26.10;79.40
18105;DHT22;9179;50.968;3.134;2023-05-29T11:46:32;26.10;78.50
18105;DHT22;9179;50.968;3.134;2023-05-29T11:49:01;26.00;78.00
18105;DHT22;9179;50.968;3.134;2023-05-29T11:51:28;25.50;77.90
18105;DHT22;9179;50.968;3.134;2023-05-29T11:53:55;25.70;78.30
18105;DHT22;9179;50.968;3.134;2023-05-29T11:56:24;25.70;77.70
18105;DHT22;9179;50.968;3.134;2023-05-29T11:58:52;25.30;77.40
18105;DHT22;9179;50.968;3.134;2023-05-29T12:01:22;25.30;77.70
18105;DHT22;9179;50.968;3.134;2023-05-29T12:03:50;25.90;77.80
18105;DHT22;9179;50.968;3.134;2023-05-29T12:06:32;26.40;77.20
18105;DHT22;9179;50.968;3.134;2023-05-29T12:09:00;26.50;75.20
18105;DHT22;9179;50.968;3.134;2023-05-29T12:11:29;26.10;75.40
18105;DHT22;9179;50.968;3.134;2023-05-29T12:13:57;26.10;76.10
18105;DHT22;9179;50.968;3.134;2023-05-29T12:16:25;26.30;75.60
18105;DHT22;9179;50.968;3.134;2023-05-29T12:18:53;26.10;75.20
18105;DHT22;9179;50.968;3.134;2023-05-29T12:21:22;25.80;75.00
18105;DHT22;9179;50.968;3.134;2023-05-29T12:23:53;25.90;75.20
18105;DHT22;9179;50.968;3.134;2023-05-29T12:26:22;25.70;74.80
18105;DHT22;9179;50.968;3.134;2023-05-29T12:28:50;25.50;74.40
18105;DHT22;9179;50.968;3.134;2023-05-29T12:31:26;25.70;74.60
18105;DHT22;9179;50.968;3.134;2023-05-29T12:33:59;25.60;74.60
18105;DHT22;9179;50.968;3.134;2023-05-29T12:36:27;26.20;74.60
18105;DHT22;9179;50.968;3.134;2023-05-29T12:38:55;26.20;73.70
18105;DHT22;9179;50.968;3.134;2023-05-29T12:41:28;26.10;72.90
18105;DHT22;9179;50.968;3.134;2023-05-29T12:43:56;26.30;73.50
18105;DHT22;9179;50.968;3.134;2023-05-29T12:46:24;26.60;73.10
18105;DHT22;9179;50.968;3.134;2023-05-29T12:48:53;26.50;71.80
18105;DHT22;9179;50.968;3.134;2023-05-29T12:51:23;26.40;71.80
18105;DHT22;9179;50.968;3.134;2023-05-29T12:53:50;26.40;71.80
18105;DHT22;9179;50.968;3.134;2023-05-29T12:56:22;26.50;70.70
18105;DHT22;9179;50.968;3.134;2023-05-29T12:58:50;27.10;71.00
18105;DHT22;9179;50.968;3.134;2023-05-29T13:01:16;27.60;70.20
18105;DHT22;9179;50.968;3.134;2023-05-29T13:03:43;28.50;69.10
18105;DHT22;9179;50.968;3.134;2023-05-29T13:06:11;28.80;67.70
18105;DHT22;9179;50.968;3.134;2023-05-29T13:08:38;28.50;68.00
18105;DHT22;9179;50.968;3.134;2023-05-29T13:11:05;28.40;68.30
18105;DHT22;9179;50.968;3.134;2023-05-29T13:13:33;27.00;70.30
18105;DHT22;9179;50.968;3.134;2023-05-29T13:16:00;27.50;70.80
18105;DHT22;9179;50.968;3.134;2023-05-29T13:18:27;28.30;69.90
18105;DHT22;9179;50.968;3.134;2023-05-29T13:20:54;28.50;68.60
18105;DHT22;9179;50.968;3.134;2023-05-29T13:23:21;29.40;68.80
18105;DHT22;9179;50.968;3.134;2023-05-29T13:25:48;30.10;66.70
18105;DHT22;9179;50.968;3.134;2023-05-29T13:28:15;29.50;65.80
18105;DHT22;9179;50.968;3.134;2023-05-29T13:30:43;29.10;66.30
18105;DHT22;9179;50.968;3.134;2023-05-29T13:33:10;29.30;65.90
18105;DHT22;9179;50.968;3.134;2023-05-29T13:35:37;29.10;66.20
18105;DHT22;9179;50.968;3.134;2023-05-29T13:38:04;29.10;66.20
18105;DHT22;9179;50.968;3.134;2023-05-29T13:40:31;28.60;66.40
18105;DHT22;9179;50.968;3.134;2023-05-29T13:42:58;28.60;66.30
18105;DHT22;9179;50.968;3.134;2023-05-29T13:45:25;28.60;66.80
18105;DHT22;9179;50.968;3.134;2023-05-29T13:47:55;28.80;65.80
18105;DHT22;9179;50.968;3.134;2023-05-29T13:50:22;28.80;65.80
18105;DHT22;9179;50.968;3.134;2023-05-29T13:52:50;28.80;65.60
18105;DHT22;9179;50.968;3.134;2023-05-29T13:55:17;28.90;65.30
18105;DHT22;9179;50.968;3.134;2023-05-29T13:57:44;28.30;66.60
18105;DHT22;9179;50.968;3.134;2023-05-29T14:00:12;27.90;66.50
18105;DHT22;9179;50.968;3.134;2023-05-29T14:02:39;27.80;67.20
18105;DHT22;9179;50.968;3.134;2023-05-29T14:05:08;27.60;67.40
18105;DHT22;9179;50.968;3.134;2023-05-29T14:07:36;27.10;68.20
18105;DHT22;9179;50.968;3.134;2023-05-29T14:10:04;27.50;68.00
18105;DHT22;9179;50.968;3.134;2023-05-29T14:12:31;27.40;68.60
18105;DHT22;9179;50.968;3.134;2023-05-29T14:14:58;28.50;66.20
18105;DHT22;9179;50.968;3.134;2023-05-29T14:17:25;28.70;65.50
18105;DHT22;9179;50.968;3.134;2023-05-29T14:19:52;29.40;65.00
18105;DHT22;9179;50.968;3.134;2023-05-29T14:22:21;29.50;63.80
18105;DHT22;9179;50.968;3.134;2023-05-29T14:24:48;29.10;64.00
18105;DHT22;9179;50.968;3.134;2023-05-29T14:27:15;29.30;63.50
18105;DHT22;9179;50.968;3.134;2023-05-29T14:29:42;29.90;62.50
18105;DHT22;9179;50.968;3.134;2023-05-29T14:32:11;29.40;61.60
18105;DHT22;9179;50.968;3.134;2023-05-29T14:34:38;29.20;62.60
18105;DHT22;9179;50.968;3.134;2023-05-29T14:37:05;28.90;62.50
18105;DHT22;9179;50.968;3.134;2023-05-29T14:39:34;28.20;64.50
18105;DHT22;9179;50.968;3.134;2023-05-29T14:42:01;28.20;64.40
18105;DHT22;9179;50.968;3.134;2023-05-29T14:44:28;28.40;64.70
18105;DHT22;9179;50.968;3.134;2023-05-29T14:46:55;27.80;65.00
18105;DHT22;9179;50.968;3.134;2023-05-29T14:49:22;27.10;67.10
18105;DHT22;9179;50.968;3.134;2023-05-29T14:51:49;26.00;69.00
18105;DHT22;9179;50.968;3.134;2023-05-29T14:54:16;25.00;72.10
18105;DHT22;9179;50.968;3.134;2023-05-29T14:56:44;24.60;73.20
18105;DHT22;9179;50.968;3.134;2023-05-29T14:59:11;24.80;73.70
18105;DHT22;9179;50.968;3.134;2023-05-29T15:01:38;25.10;72.90
18105;DHT22;9179;50.968;3.134;2023-05-29T15:04:05;25.00;73.50
18105;DHT22;9179;50.968;3.134;2023-05-29T15:06:32;24.70;74.50
18105;DHT22;9179;50.968;3.134;2023-05-29T15:08:59;25.00;74.50
18105;DHT22;9179;50.968;3.134;2023-05-29T15:11:28;25.50;73.50
18105;DHT22;9179;50.968;3.134;2023-05-29T15:13:56;25.90;73.20
18105;DHT22;9179;50.968;3.134;2023-05-29T15:16:24;26.10;72.80
18105;DHT22;9179;50.968;3.134;2023-05-29T15:18:51;25.70;72.90
18105;DHT22;9179;50.968;3.134;2023-05-29T15:21:18;25.10;74.10
18105;DHT22;9179;50.968;3.134;2023-05-29T15:23:45;24.30;75.90
18105;DHT22;9179;50.968;3.134;2023-05-29T15:26:12;24.20;77.00
18105;DHT22;9179;50.968;3.134;2023-05-29T15:28:38;24.70;76.40
18105;DHT22;9179;50.968;3.134;2023-05-29T15:31:07;24.40;76.60
18105;DHT22;9179;50.968;3.134;2023-05-29T15:33:34;24.30;77.30
18105;DHT22;9179;50.968;3.134;2023-05-29T15:36:01;23.90;78.00
18105;DHT22;9179;50.968;3.134;2023-05-29T15:38:28;23.70;78.80
18105;DHT22;9179;50.968;3.134;2023-05-29T15:40:58;24.20;78.60
18105;DHT22;9179;50.968;3.134;2023-05-29T15:43:25;23.90;78.80
18105;DHT22;9179;50.968;3.134;2023-05-29T15:45:52;23.30;79.90
18105;DHT22;9179;50.968;3.134;2023-05-29T15:48:20;23.00;80.80
18105;DHT22;9179;50.968;3.134;2023-05-29T15:50:47;22.50;82.20
18105;DHT22;9179;50.968;3.134;2023-05-29T15:53:14;22.20;83.10